Las Palmas, Spain
Current Conditions -  °F | °C
As of 7:00 AM on Saturday 20 Dec 2014 (Local Time) from GCLP Reporting Station
Scattered Clouds Scattered Clouds  
Wind Chill: 17°   Ceiling: Unl
Heat Index: 17°   Visibility: 6mi
Dew Point: 13°   Wind: 13mph
Humidity: 77%   Direction: 350°N
Pressure: 30.36"   Gusts: NA
Location:  28.12°N, 15.43°W
Report Text: GCLP 200700Z 35011KT 9999 SCT025 17/13 Q1028 NOSIG
Loading
Personal Weather Stations






























Interactive Weather Map New forecast layout! Learn more

10-Day Weather Forecast

Advertisements
Track Severe Weather on mobile